Terminal Aerodrome Forecast
Issued by NWS Brownsville, TX

Home | Current Version | Previous Version | Text Only | Print | Product List | Glossary On
Versions: 1 2 3 4 5 6 7 8 9 10 11 12 13 14 15 16 17 18 19 20 21 22 23
000
FTUS44 KBRO 050801 AAB
TAFBRO
TAF AMD
KBRO 050801Z 0508/0606 01025G35KT 4SM BR VCSH BKN004 OVC007
     FM051200 34025G35KT 6SM -SHRA BR OVC007
     FM051800 33020G30KT 4SM -DZ BR OVC015
     FM060000 34015G20KT 6SM -RA BR OVC010=

USA.gov is the U.S. government's official web portal to all federal, state and local government web resources and services.